createdAt,value
2019-01-17T00:00:57.025Z,21.31
2019-01-17T00:02:06.248Z,21.32
2019-01-17T00:03:15.674Z,21.32
2019-01-17T00:04:25.106Z,21.34
2019-01-17T00:05:34.526Z,21.29
2019-01-17T00:06:43.489Z,21.35
2019-01-17T00:07:52.656Z,21.28
2019-01-17T00:09:02.334Z,21.24
2019-01-17T00:10:11.271Z,21.24
2019-01-17T00:11:20.202Z,21.17
2019-01-17T00:12:29.602Z,21.25
2019-01-17T00:13:39.270Z,21.25
2019-01-17T00:14:48.450Z,21.27
2019-01-17T00:15:57.855Z,21.19
2019-01-17T00:17:07.263Z,21.27
2019-01-17T00:18:16.202Z,21.21
2019-01-17T00:19:25.442Z,21.17
2019-01-17T00:20:35.159Z,21.16
2019-01-17T00:21:44.564Z,21.16
2019-01-17T00:22:53.737Z,21.16
2019-01-17T00:24:07.000Z,21.13
2019-01-17T00:25:16.181Z,21.13
2019-01-17T00:26:25.365Z,21.14
2019-01-17T00:27:34.289Z,21.16
2019-01-17T00:28:43.251Z,21.07
2019-01-17T00:29:53.171Z,21.17
2019-01-17T00:31:02.347Z,21.09
2019-01-17T00:32:11.771Z,21.03
2019-01-17T00:33:21.227Z,21.12
2019-01-17T00:34:30.654Z,21.06
2019-01-17T00:35:40.334Z,21.06
2019-01-17T00:36:49.757Z,21.06
2019-01-17T00:37:59.170Z,21.09
2019-01-17T00:39:08.652Z,21.07
2019-01-17T00:40:18.099Z,21.04
2019-01-17T00:41:27.031Z,21.07
2019-01-17T00:42:36.464Z,21.03
2019-01-17T00:43:45.642Z,20.94
2019-01-17T00:44:55.347Z,20.97
2019-01-17T00:46:04.773Z,20.99
2019-01-17T00:47:14.203Z,20.94
2019-01-17T00:48:23.415Z,20.94
2019-01-17T00:49:32.894Z,20.95
2019-01-17T00:50:42.084Z,20.98
2019-01-17T00:51:51.014Z,21.03
2019-01-17T00:53:00.208Z,20.97
2019-01-17T00:54:13.931Z,20.94
2019-01-17T00:55:23.103Z,20.89
2019-01-17T00:56:32.220Z,20.98
2019-01-17T00:57:41.132Z,20.97
2019-01-17T00:58:50.861Z,20.97
2019-01-17T00:59:59.806Z,20.89
2019-01-17T01:01:09.254Z,20.82
2019-01-17T01:02:18.688Z,20.92
2019-01-17T01:03:28.385Z,20.94
2019-01-17T01:04:37.563Z,20.82
2019-01-17T01:05:47.269Z,20.82
2019-01-17T01:06:56.437Z,20.88
2019-01-17T01:08:05.368Z,20.88
2019-01-17T01:09:14.538Z,20.91
2019-01-17T01:10:23.982Z,20.8
2019-01-17T01:11:33.654Z,20.82
2019-01-17T01:12:43.073Z,20.85
2019-01-17T01:13:52.240Z,20.89
2019-01-17T01:15:01.420Z,20.77
2019-01-17T01:16:10.892Z,20.76
2019-01-17T01:17:20.088Z,20.87
2019-01-17T01:18:28.796Z,20.8
2019-01-17T01:19:38.465Z,20.84
2019-01-17T01:20:48.163Z,20.79
2019-01-17T01:21:57.348Z,20.79
2019-01-17T01:23:06.550Z,20.82
2019-01-17T01:24:20.273Z,20.79
2019-01-17T01:25:29.460Z,20.84
2019-01-17T01:26:38.643Z,20.7
2019-01-17T01:27:47.574Z,20.66
2019-01-17T01:28:56.755Z,20.7
2019-01-17T01:30:06.201Z,20.7
2019-01-17T01:31:15.880Z,20.66
2019-01-17T01:32:25.310Z,20.7
2019-01-17T01:33:34.465Z,20.72
2019-01-17T01:34:43.659Z,20.74
2019-01-17T01:35:52.858Z,20.69
2019-01-17T01:37:01.790Z,20.67
2019-01-17T01:38:10.705Z,20.74
2019-01-17T01:39:19.892Z,20.69
2019-01-17T01:40:29.569Z,20.73
2019-01-17T01:41:38.495Z,20.67
2019-01-17T01:42:47.697Z,20.74
2019-01-17T01:43:57.154Z,20.7
2019-01-17T01:45:06.598Z,20.67
2019-01-17T01:46:15.773Z,20.77
2019-01-17T01:47:24.714Z,20.7
2019-01-17T01:48:34.397Z,20.69
2019-01-17T01:49:43.844Z,20.69
2019-01-17T01:50:52.797Z,20.69
2019-01-17T01:52:02.017Z,20.69
2019-01-17T01:53:11.445Z,20.66
2019-01-17T01:54:26.607Z,20.69
2019-01-17T01:55:36.065Z,20.69
2019-01-17T01:56:45.010Z,20.69
2019-01-17T01:57:53.967Z,20.69
2019-01-17T01:59:03.907Z,20.67
2019-01-17T02:00:13.084Z,20.69
2019-01-17T02:01:22.542Z,20.7
2019-01-17T02:02:31.479Z,20.67
2019-01-17T02:03:40.923Z,20.64
2019-01-17T02:04:50.370Z,20.61
2019-01-17T02:05:59.810Z,20.64
2019-01-17T02:07:08.987Z,20.64
2019-01-17T02:08:18.436Z,20.7
2019-01-17T02:09:27.869Z,20.64
2019-01-17T02:10:36.838Z,20.66
2019-01-17T02:11:46.601Z,20.66
2019-01-17T02:12:56.299Z,20.62
2019-01-17T02:14:05.737Z,20.61
2019-01-17T02:15:14.934Z,20.62
2019-01-17T02:16:24.122Z,20.61
2019-01-17T02:17:33.315Z,20.61
2019-01-17T02:18:42.744Z,20.54
2019-01-17T02:19:52.695Z,20.52
2019-01-17T02:21:02.112Z,20.57
2019-01-17T02:22:11.816Z,20.59
2019-01-17T02:23:20.764Z,20.58
2019-01-17T02:24:33.208Z,20.54
2019-01-17T02:25:42.877Z,20.61
2019-01-17T02:26:52.294Z,20.61
2019-01-17T02:28:01.737Z,20.47
2019-01-17T02:29:11.158Z,20.42
2019-01-17T02:30:20.598Z,20.43
2019-01-17T02:31:29.889Z,20.48
2019-01-17T02:32:39.072Z,20.39
2019-01-17T02:33:48.279Z,20.47
2019-01-17T02:34:57.974Z,20.41
2019-01-17T02:36:07.776Z,20.51
2019-01-17T02:37:17.203Z,20.48
2019-01-17T02:38:26.624Z,20.52
2019-01-17T02:39:36.065Z,20.55
2019-01-17T02:40:45.490Z,20.54
2019-01-17T02:41:55.181Z,20.54
2019-01-17T02:43:05.136Z,20.51
2019-01-17T02:44:14.570Z,20.41
2019-01-17T02:45:24.247Z,20.54
2019-01-17T02:46:34.166Z,20.5
2019-01-17T02:47:43.881Z,20.5
2019-01-17T02:48:53.556Z,20.42
2019-01-17T02:50:03.300Z,20.43
2019-01-17T02:51:12.742Z,20.43
2019-01-17T02:52:22.443Z,20.43
2019-01-17T02:53:32.165Z,20.42
2019-01-17T02:54:41.097Z,20.41
2019-01-17T02:55:50.282Z,20.36
2019-01-17T02:56:59.708Z,20.42
2019-01-17T02:58:08.881Z,20.41
2019-01-17T02:59:18.089Z,20.39
2019-01-17T03:00:27.279Z,20.38
2019-01-17T03:01:36.484Z,20.38
2019-01-17T03:02:45.416Z,20.41
2019-01-17T03:03:55.135Z,20.38
2019-01-17T03:05:04.848Z,20.36
2019-01-17T03:06:14.298Z,20.33
2019-01-17T03:07:23.975Z,20.38
2019-01-17T03:08:33.709Z,20.38
2019-01-17T03:09:43.698Z,20.38
2019-01-17T03:10:53.385Z,20.36
2019-01-17T03:12:02.808Z,20.42
2019-01-17T03:13:12.255Z,20.33
2019-01-17T03:14:21.490Z,20.42
2019-01-17T03:15:30.679Z,20.31
2019-01-17T03:16:39.863Z,20.26
2019-01-17T03:17:49.307Z,20.33
2019-01-17T03:18:58.998Z,20.28
2019-01-17T03:20:08.756Z,20.28
2019-01-17T03:21:18.186Z,20.36
2019-01-17T03:22:27.610Z,20.31
2019-01-17T03:23:36.795Z,20.24
2019-01-17T03:24:47.698Z,20.29
2019-01-17T03:25:57.384Z,20.32
2019-01-17T03:27:06.328Z,20.28
2019-01-17T03:28:15.252Z,20.31
2019-01-17T03:29:25.161Z,20.17
2019-01-17T03:30:34.838Z,20.2
2019-01-17T03:31:44.810Z,20.17
2019-01-17T03:32:54.792Z,20.18
2019-01-17T03:34:03.810Z,20.17
2019-01-17T03:35:13.236Z,20.16
2019-01-17T03:36:22.663Z,20.26
2019-01-17T03:37:32.345Z,20.21
2019-01-17T03:38:41.262Z,20.21
2019-01-17T03:39:50.945Z,20.21
2019-01-17T03:41:00.378Z,20.17
2019-01-17T03:42:09.332Z,20.2
2019-01-17T03:43:18.508Z,20.2
2019-01-17T03:44:28.443Z,20.17
2019-01-17T03:45:37.876Z,20.16
2019-01-17T03:46:47.328Z,20.21
2019-01-17T03:47:57.022Z,20.16
2019-01-17T03:49:05.951Z,20.18
2019-01-17T03:50:14.888Z,20.24
2019-01-17T03:51:24.326Z,20.21
2019-01-17T03:52:33.764Z,20.2
2019-01-17T03:53:43.462Z,20.13
2019-01-17T03:54:58.447Z,20.2
2019-01-17T03:56:07.925Z,20.2
2019-01-17T03:57:17.350Z,20.21
2019-01-17T03:58:26.775Z,20.13
2019-01-17T03:59:36.212Z,20.17
2019-01-17T04:00:45.683Z,20.24
2019-01-17T04:01:55.128Z,20.21
2019-01-17T04:03:04.569Z,20.11
2019-01-17T04:04:14.015Z,20.17
2019-01-17T04:05:23.430Z,20.17
2019-01-17T04:06:32.616Z,20.14
2019-01-17T04:07:41.797Z,20.16
2019-01-17T04:08:51.225Z,20.21
2019-01-17T04:10:00.727Z,20.17
2019-01-17T04:11:10.442Z,20.23
2019-01-17T04:12:19.873Z,20.17
2019-01-17T04:13:28.568Z,20.2
2019-01-17T04:14:38.238Z,20.21
2019-01-17T04:15:47.933Z,20.21
2019-01-17T04:16:57.114Z,20.16
2019-01-17T04:18:06.549Z,20.23
2019-01-17T04:19:15.732Z,20.18
2019-01-17T04:20:25.172Z,20.18
2019-01-17T04:21:35.092Z,20.16
2019-01-17T04:22:44.552Z,20.26
2019-01-17T04:23:53.743Z,20.21
2019-01-17T04:25:03.255Z,20.21
2019-01-17T04:26:12.934Z,20.2
2019-01-17T04:27:22.637Z,20.17
2019-01-17T04:28:32.078Z,20.06
2019-01-17T04:29:41.525Z,20.2
2019-01-17T04:30:50.962Z,20.18
2019-01-17T04:32:00.670Z,20.1
2019-01-17T04:33:10.098Z,20.13
2019-01-17T04:34:19.779Z,20.1
2019-01-17T04:35:28.949Z,20.13
2019-01-17T04:36:38.379Z,20.11
2019-01-17T04:37:47.814Z,20.1
2019-01-17T04:38:57.481Z,20.2
2019-01-17T04:40:06.666Z,20.13
2019-01-17T04:41:15.842Z,20.13
2019-01-17T04:42:25.273Z,20.14
2019-01-17T04:43:34.947Z,20.06
2019-01-17T04:44:44.131Z,20.17
2019-01-17T04:45:53.568Z,20.14
2019-01-17T04:47:02.744Z,20.13
2019-01-17T04:48:12.423Z,20.13
2019-01-17T04:49:21.342Z,20.05
2019-01-17T04:50:30.547Z,20.13
2019-01-17T04:51:39.980Z,20.21
2019-01-17T04:52:49.191Z,20.03
2019-01-17T04:53:58.660Z,20.11
2019-01-17T04:55:10.092Z,20.08
2019-01-17T04:56:19.522Z,20.11
2019-01-17T04:57:28.978Z,20.13
2019-01-17T04:58:38.425Z,20.16
2019-01-17T04:59:48.144Z,20.13
2019-01-17T05:00:57.582Z,20.11
2019-01-17T05:02:06.769Z,20.1
2019-01-17T05:03:16.214Z,20.11
2019-01-17T05:04:25.151Z,20.1
2019-01-17T05:05:34.591Z,20.08
2019-01-17T05:06:44.104Z,20.11
2019-01-17T05:07:53.783Z,20.05
2019-01-17T05:09:03.470Z,20.05
2019-01-17T05:10:12.664Z,20.06
2019-01-17T05:11:22.684Z,20.11
2019-01-17T05:12:32.356Z,20.13
2019-01-17T05:13:42.061Z,20.1
2019-01-17T05:14:51.487Z,20.02
2019-01-17T05:16:00.676Z,20.06
2019-01-17T05:17:09.601Z,20.1
2019-01-17T05:18:19.266Z,20.13
2019-01-17T05:19:28.959Z,20.05
2019-01-17T05:20:38.395Z,20.08
2019-01-17T05:21:47.844Z,20.06
2019-01-17T05:22:57.506Z,20.11
2019-01-17T05:24:06.469Z,20.1
2019-01-17T05:25:17.587Z,20.1
2019-01-17T05:26:26.523Z,20.11
2019-01-17T05:27:35.966Z,20.08
2019-01-17T05:28:45.910Z,20.02
2019-01-17T05:29:55.608Z,20.01
2019-01-17T05:31:05.195Z,20.08
2019-01-17T05:32:14.194Z,20.02
2019-01-17T05:33:23.900Z,20.02
2019-01-17T05:34:39.251Z,19.98
2019-01-17T05:35:49.001Z,20.02
2019-01-17T05:36:58.214Z,19.98
2019-01-17T05:38:07.410Z,20.01
2019-01-17T05:39:16.830Z,20.02
2019-01-17T05:40:25.497Z,20.01
2019-01-17T05:41:34.671Z,20.03
2019-01-17T05:42:44.100Z,20.01
2019-01-17T05:43:53.069Z,19.98
2019-01-17T05:45:02.623Z,20.01
2019-01-17T05:46:12.309Z,19.96
2019-01-17T05:47:21.728Z,20.01
2019-01-17T05:48:31.137Z,19.95
2019-01-17T05:49:40.320Z,19.98
2019-01-17T05:50:50.005Z,19.99
2019-01-17T05:51:59.431Z,19.99
2019-01-17T05:53:08.925Z,19.95
2019-01-17T05:54:18.629Z,19.98
2019-01-17T05:55:28.056Z,20.03
2019-01-17T05:56:37.274Z,19.99
2019-01-17T05:57:46.734Z,19.96
2019-01-17T05:58:56.168Z,19.96
2019-01-17T06:00:05.868Z,19.99
2019-01-17T06:01:15.045Z,20.01
2019-01-17T06:02:24.787Z,19.98
2019-01-17T06:03:33.508Z,19.95
2019-01-17T06:05:11.397Z,20.02
2019-01-17T06:06:20.423Z,19.99
2019-01-17T06:07:30.421Z,19.98
2019-01-17T06:08:39.471Z,20.05
2019-01-17T06:09:48.209Z,20.01
2019-01-17T06:10:57.732Z,19.98
2019-01-17T06:12:07.257Z,20.03
2019-01-17T06:13:16.379Z,19.99
2019-01-17T06:14:25.149Z,19.98
2019-01-17T06:15:34.217Z,19.99
2019-01-17T06:16:43.012Z,20.08
2019-01-17T06:17:52.516Z,20.05
2019-01-17T06:19:01.539Z,20.06
2019-01-17T06:20:10.813Z,20.03
2019-01-17T06:21:20.332Z,20.01
2019-01-17T06:22:29.626Z,19.99
2019-01-17T06:23:39.159Z,20.02
2019-01-17T06:24:48.211Z,20.13
2019-01-17T06:25:57.229Z,19.99
2019-01-17T06:27:06.525Z,20.05
2019-01-17T06:28:16.356Z,20.08
2019-01-17T06:29:25.538Z,20.13
2019-01-17T06:30:35.120Z,20.02
2019-01-17T06:31:44.154Z,20.03
2019-01-17T06:32:53.459Z,19.99
2019-01-17T06:34:02.994Z,19.98
2019-01-17T06:35:12.508Z,20.05
2019-01-17T06:36:22.553Z,20.01
2019-01-17T06:37:31.889Z,20.01
2019-01-17T06:38:42.269Z,20.01
2019-01-17T06:39:51.787Z,20.06
2019-01-17T06:41:01.576Z,20.01
2019-01-17T06:42:10.622Z,19.99
2019-01-17T06:43:19.886Z,20.01
2019-01-17T06:44:28.989Z,20.01
2019-01-17T06:45:38.338Z,20.05
2019-01-17T06:46:47.705Z,19.99
2019-01-17T06:47:57.075Z,19.96
2019-01-17T06:49:06.191Z,19.99
2019-01-17T06:50:15.482Z,19.98
2019-01-17T06:51:24.292Z,19.95
2019-01-17T06:52:33.603Z,19.99
2019-01-17T06:53:42.888Z,19.95
2019-01-17T06:54:52.467Z,19.99
2019-01-17T06:56:02.272Z,19.94
2019-01-17T06:57:11.622Z,19.86
2019-01-17T06:58:20.910Z,19.84
2019-01-17T06:59:30.495Z,19.8
2019-01-17T07:00:39.835Z,19.87
2019-01-17T07:01:49.374Z,19.84
2019-01-17T07:02:58.981Z,19.92
2019-01-17T07:04:08.336Z,20.02
2019-01-17T07:05:17.154Z,19.99
2019-01-17T07:06:28.217Z,20.08
2019-01-17T07:07:37.847Z,20.06
2019-01-17T07:08:47.131Z,20.21
2019-01-17T07:09:56.226Z,20.21
2019-01-17T07:11:05.331Z,20.36
2019-01-17T07:12:15.126Z,20.38
2019-01-17T07:13:24.534Z,20.5
2019-01-17T07:14:34.064Z,20.55
2019-01-17T07:15:43.597Z,20.55
2019-01-17T07:16:52.674Z,20.73
2019-01-17T07:18:01.989Z,20.8
2019-01-17T07:19:11.624Z,20.76
2019-01-17T07:20:20.749Z,20.88
2019-01-17T07:21:29.911Z,20.98
2019-01-17T07:22:39.006Z,20.97
2019-01-17T07:23:48.637Z,21.04
2019-01-17T07:24:57.521Z,21.03
2019-01-17T07:26:07.049Z,21.12
2019-01-17T07:27:16.380Z,21.27
2019-01-17T07:28:26.002Z,21.31
2019-01-17T07:29:34.829Z,21.29
2019-01-17T07:30:44.464Z,21.34
2019-01-17T07:31:54.001Z,21.42
2019-01-17T07:33:03.423Z,21.46
2019-01-17T07:34:13.404Z,21.52
2019-01-17T07:35:22.769Z,21.58
2019-01-17T07:36:31.671Z,21.64
2019-01-17T07:37:41.349Z,21.65
2019-01-17T07:38:50.908Z,21.65
2019-01-17T07:40:00.415Z,21.74
2019-01-17T07:41:09.797Z,21.72
2019-01-17T07:42:19.212Z,21.74
2019-01-17T07:43:28.384Z,21.77
2019-01-17T07:44:37.405Z,21.82
2019-01-17T07:45:46.507Z,21.88
2019-01-17T07:46:55.903Z,21.86
2019-01-17T07:48:05.057Z,21.74
2019-01-17T07:49:13.889Z,21.74
2019-01-17T07:50:23.310Z,21.86
2019-01-17T07:51:32.436Z,21.84
2019-01-17T07:52:41.357Z,21.9
2019-01-17T07:53:50.981Z,21.92
2019-01-17T07:55:00.413Z,21.83
2019-01-17T07:56:09.430Z,21.86
2019-01-17T07:57:19.258Z,21.86
2019-01-17T07:58:28.526Z,21.9
2019-01-17T07:59:37.902Z,21.83
2019-01-17T08:00:47.323Z,21.77
2019-01-17T08:01:56.979Z,21.84
2019-01-17T08:03:06.097Z,21.82
2019-01-17T08:04:17.168Z,21.86
2019-01-17T08:05:26.444Z,21.72
2019-01-17T08:06:35.818Z,21.83
2019-01-17T08:07:45.414Z,21.82
2019-01-17T08:08:54.625Z,21.77
2019-01-17T08:10:03.689Z,21.75
2019-01-17T08:11:13.047Z,21.74
2019-01-17T08:12:22.605Z,21.69
2019-01-17T08:13:31.683Z,21.77
2019-01-17T08:14:41.507Z,21.68
2019-01-17T08:15:51.088Z,21.65
2019-01-17T08:17:00.264Z,21.65
2019-01-17T08:18:09.785Z,21.61
2019-01-17T08:19:25.547Z,21.58
2019-01-17T08:20:35.402Z,21.61
2019-01-17T08:21:44.552Z,21.53
2019-01-17T08:22:53.844Z,21.54
2019-01-17T08:24:03.251Z,21.53
2019-01-17T08:25:12.307Z,21.56
2019-01-17T08:26:21.407Z,21.54
2019-01-17T08:27:31.092Z,21.46
2019-01-17T08:28:40.664Z,21.5
2019-01-17T08:29:49.788Z,21.44
2019-01-17T08:30:59.411Z,21.46
2019-01-17T08:32:08.770Z,21.49
2019-01-17T08:33:18.555Z,21.4
2019-01-17T08:34:33.160Z,21.42
2019-01-17T08:35:42.710Z,21.4
2019-01-17T08:36:52.379Z,21.37
2019-01-17T08:38:01.203Z,21.37
2019-01-17T08:39:10.531Z,21.31
2019-01-17T08:40:24.871Z,21.31
2019-01-17T08:41:34.407Z,21.32
2019-01-17T08:42:44.064Z,21.32
2019-01-17T08:43:53.589Z,21.24
2019-01-17T08:45:03.219Z,21.25
2019-01-17T08:46:12.506Z,21.21
2019-01-17T08:47:21.622Z,21.28
2019-01-17T08:48:31.195Z,21.19
2019-01-17T08:49:40.291Z,21.22
2019-01-17T08:50:49.595Z,21.17
2019-01-17T08:51:59.465Z,21.12
2019-01-17T08:53:09.626Z,21.12
2019-01-17T08:54:19.510Z,21.13
2019-01-17T08:55:28.954Z,21.12
2019-01-17T08:56:38.206Z,21.12
2019-01-17T08:57:47.233Z,21.13
2019-01-17T08:58:56.604Z,21.12
2019-01-17T09:00:06.397Z,21.13
2019-01-17T09:01:16.295Z,21.13
2019-01-17T09:02:25.567Z,21.17
2019-01-17T09:03:35.187Z,21.09
2019-01-17T09:04:44.480Z,21.21
2019-01-17T09:05:53.767Z,21.16
2019-01-17T09:07:03.294Z,21.21
2019-01-17T09:08:12.553Z,21.21
2019-01-17T09:09:22.088Z,21.29
2019-01-17T09:10:31.398Z,21.27
2019-01-17T09:11:40.442Z,21.32
2019-01-17T09:12:49.538Z,21.32
2019-01-17T09:13:58.593Z,21.34
2019-01-17T09:15:07.689Z,21.31
2019-01-17T09:16:17.010Z,21.29
2019-01-17T09:17:26.818Z,21.28
2019-01-17T09:18:36.386Z,21.29
2019-01-17T09:19:46.184Z,21.25
2019-01-17T09:20:55.475Z,21.35
2019-01-17T09:22:04.269Z,21.32
2019-01-17T09:23:13.268Z,21.35
2019-01-17T09:24:22.092Z,21.35
2019-01-17T09:25:31.909Z,21.34
2019-01-17T09:26:41.138Z,21.38
2019-01-17T09:27:50.504Z,21.34
2019-01-17T09:28:59.829Z,21.35
2019-01-17T09:30:09.662Z,21.32
2019-01-17T09:31:19.107Z,21.34
2019-01-17T09:32:28.220Z,21.37
2019-01-17T09:33:37.592Z,21.32
2019-01-17T09:34:46.662Z,21.29
2019-01-17T09:35:56.286Z,21.35
2019-01-17T09:37:05.631Z,21.38
2019-01-17T09:38:15.662Z,21.4
2019-01-17T09:39:25.084Z,21.38
2019-01-17T09:40:34.626Z,21.37
2019-01-17T09:41:43.977Z,21.32
2019-01-17T09:42:53.569Z,21.35
2019-01-17T09:44:02.643Z,21.35
2019-01-17T09:45:11.778Z,21.37
2019-01-17T09:46:21.093Z,21.34
2019-01-17T09:47:31.001Z,21.44
2019-01-17T09:48:40.040Z,21.4
2019-01-17T09:49:49.088Z,21.43
2019-01-17T09:50:58.445Z,21.42
2019-01-17T09:52:07.547Z,21.38
2019-01-17T09:53:16.972Z,21.37
2019-01-17T09:54:25.988Z,21.47
2019-01-17T09:55:35.322Z,21.37
2019-01-17T09:56:44.662Z,21.43
2019-01-17T09:57:54.041Z,21.49
2019-01-17T09:59:03.888Z,21.53
2019-01-17T10:00:13.370Z,21.49
2019-01-17T10:01:22.649Z,21.49
2019-01-17T10:02:32.214Z,21.5
2019-01-17T10:03:41.826Z,21.5
2019-01-17T10:04:51.344Z,21.47
2019-01-17T10:06:00.741Z,21.44
2019-01-17T10:07:10.044Z,21.47
2019-01-17T10:08:19.405Z,21.5
2019-01-17T10:09:28.490Z,21.52
2019-01-17T10:10:37.612Z,21.49
2019-01-17T10:11:47.022Z,21.47
2019-01-17T10:12:56.164Z,21.53
2019-01-17T10:14:05.784Z,21.4
2019-01-17T10:15:15.214Z,21.43
2019-01-17T10:16:24.562Z,21.37
2019-01-17T10:17:33.861Z,21.5
2019-01-17T10:18:43.192Z,21.47
2019-01-17T10:19:52.807Z,21.42
2019-01-17T10:21:02.345Z,21.42
2019-01-17T10:22:11.204Z,21.42
2019-01-17T10:23:20.800Z,21.47
2019-01-17T10:24:29.917Z,21.43
2019-01-17T10:25:39.726Z,21.47
2019-01-17T10:26:49.175Z,21.42
2019-01-17T10:27:58.007Z,21.34
2019-01-17T10:29:07.870Z,21.37
2019-01-17T10:30:17.227Z,21.37
2019-01-17T10:31:26.754Z,21.35
2019-01-17T10:32:36.279Z,21.38
2019-01-17T10:33:45.675Z,21.32
2019-01-17T10:34:55.283Z,21.4
2019-01-17T10:36:04.502Z,21.28
2019-01-17T10:37:14.053Z,21.38
2019-01-17T10:38:23.111Z,21.27
2019-01-17T10:39:32.247Z,21.24
2019-01-17T10:40:41.379Z,21.25
2019-01-17T10:41:50.479Z,21.29
2019-01-17T10:42:59.597Z,21.21
2019-01-17T10:44:08.946Z,21.29
2019-01-17T10:45:18.376Z,21.22
2019-01-17T10:46:28.328Z,21.24
2019-01-17T10:47:37.961Z,21.25
2019-01-17T10:48:47.559Z,21.25
2019-01-17T10:49:56.842Z,21.27
2019-01-17T10:51:06.281Z,21.21
2019-01-17T10:52:15.600Z,21.22
2019-01-17T10:53:25.245Z,21.21
2019-01-17T10:54:34.564Z,21.27
2019-01-17T10:55:43.456Z,21.22
2019-01-17T10:56:52.773Z,21.19
2019-01-17T10:58:02.184Z,21.25
2019-01-17T10:59:12.039Z,21.24
2019-01-17T11:00:21.680Z,21.24
2019-01-17T11:01:30.780Z,21.27
2019-01-17T11:02:39.916Z,21.19
2019-01-17T11:03:49.877Z,21.28
2019-01-17T11:04:59.194Z,21.28
2019-01-17T11:06:08.612Z,21.28
2019-01-17T11:07:18.244Z,21.32
2019-01-17T11:08:27.718Z,21.34
2019-01-17T11:09:37.668Z,21.28
2019-01-17T11:10:47.151Z,21.38
2019-01-17T11:11:56.761Z,21.34
2019-01-17T11:13:05.688Z,21.37
2019-01-17T11:14:14.843Z,21.34
2019-01-17T11:15:24.444Z,21.44
2019-01-17T11:16:34.318Z,21.38
2019-01-17T11:17:44.254Z,21.49
2019-01-17T11:18:53.350Z,21.5
2019-01-17T11:20:02.713Z,21.49
2019-01-17T11:21:11.885Z,21.58
2019-01-17T11:22:21.502Z,21.56
2019-01-17T11:23:31.186Z,21.58
2019-01-17T11:24:40.541Z,21.58
2019-01-17T11:25:50.657Z,21.58
2019-01-17T11:27:00.010Z,21.56
2019-01-17T11:28:10.312Z,21.62
2019-01-17T11:29:19.943Z,21.62
2019-01-17T11:30:29.360Z,21.59
2019-01-17T11:31:38.302Z,21.58
2019-01-17T11:32:47.598Z,21.64
2019-01-17T11:33:57.291Z,21.58
2019-01-17T11:35:06.619Z,21.56
2019-01-17T11:36:15.986Z,21.61
2019-01-17T11:37:25.575Z,21.59
2019-01-17T11:38:34.929Z,21.62
2019-01-17T11:39:44.275Z,21.56
2019-01-17T11:40:53.791Z,21.53
2019-01-17T11:42:03.190Z,21.52
2019-01-17T11:43:12.595Z,21.54
2019-01-17T11:44:22.252Z,21.58
2019-01-17T11:45:32.094Z,21.56
2019-01-17T11:46:41.482Z,21.54
2019-01-17T11:47:50.574Z,21.56
2019-01-17T11:48:59.587Z,21.53
2019-01-17T11:50:09.053Z,21.52
2019-01-17T11:51:18.674Z,21.54
2019-01-17T11:52:28.053Z,21.49
2019-01-17T11:53:37.436Z,21.49
2019-01-17T11:54:47.025Z,21.47
2019-01-17T11:55:56.489Z,21.46
2019-01-17T11:57:05.890Z,21.43
2019-01-17T11:58:15.293Z,21.44
2019-01-17T11:59:24.136Z,21.46
2019-01-17T12:00:33.769Z,21.4
2019-01-17T12:01:42.924Z,21.44
2019-01-17T12:02:52.570Z,21.43
2019-01-17T12:04:01.687Z,21.44
2019-01-17T12:05:11.275Z,21.4
2019-01-17T12:06:20.431Z,21.29
2019-01-17T12:07:29.858Z,21.37
2019-01-17T12:08:39.005Z,21.35
2019-01-17T12:09:48.665Z,21.37
2019-01-17T12:10:58.003Z,21.37
2019-01-17T12:12:07.362Z,21.37
2019-01-17T12:13:22.006Z,21.25
2019-01-17T12:14:32.007Z,21.34
2019-01-17T12:15:41.883Z,21.29
2019-01-17T12:16:51.008Z,21.32
2019-01-17T12:18:01.127Z,21.22
2019-01-17T12:19:10.757Z,21.27
2019-01-17T12:20:20.057Z,21.19
2019-01-17T12:21:29.413Z,21.27
2019-01-17T12:22:38.555Z,21.27
2019-01-17T12:23:47.617Z,21.25
2019-01-17T12:24:57.234Z,21.28
2019-01-17T12:26:06.626Z,21.24
2019-01-17T12:27:16.314Z,21.25
2019-01-17T12:28:25.999Z,21.27
2019-01-17T12:29:34.957Z,21.28
2019-01-17T12:30:44.072Z,21.25
2019-01-17T12:31:53.442Z,21.22
2019-01-17T12:33:03.006Z,21.35
2019-01-17T12:34:12.573Z,21.29
2019-01-17T12:35:21.894Z,21.29
2019-01-17T12:36:31.304Z,21.31
2019-01-17T12:37:40.255Z,21.35
2019-01-17T12:38:49.627Z,21.38
2019-01-17T12:39:58.734Z,21.47
2019-01-17T12:41:08.338Z,21.44
2019-01-17T12:42:17.323Z,21.47
2019-01-17T12:43:27.020Z,21.4
2019-01-17T12:44:36.661Z,21.49
2019-01-17T12:45:45.751Z,21.54
2019-01-17T12:46:55.560Z,21.54
2019-01-17T12:48:04.717Z,21.53
2019-01-17T12:49:14.206Z,21.64
2019-01-17T12:50:23.530Z,21.68
2019-01-17T12:51:32.427Z,21.61
2019-01-17T12:52:41.886Z,21.61
2019-01-17T12:53:51.737Z,21.64
2019-01-17T12:55:01.109Z,21.67
2019-01-17T12:56:10.500Z,21.62
2019-01-17T12:57:19.966Z,21.77
2019-01-17T12:58:29.430Z,21.72
2019-01-17T12:59:38.411Z,21.72
2019-01-17T13:00:48.227Z,21.71
2019-01-17T13:01:57.473Z,21.77
2019-01-17T13:03:06.955Z,21.71
2019-01-17T13:04:16.658Z,21.67
2019-01-17T13:05:26.340Z,21.68
2019-01-17T13:06:35.656Z,21.69
2019-01-17T13:07:45.042Z,21.65
2019-01-17T13:08:54.489Z,21.67
2019-01-17T13:10:03.838Z,21.59
2019-01-17T13:11:13.459Z,21.67
2019-01-17T13:12:22.801Z,21.68
2019-01-17T13:13:32.337Z,21.59
2019-01-17T13:14:41.954Z,21.64
2019-01-17T13:15:51.377Z,21.65
2019-01-17T13:17:00.519Z,21.65
2019-01-17T13:18:09.634Z,21.59
2019-01-17T13:19:18.821Z,21.67
2019-01-17T13:20:27.911Z,21.59
2019-01-17T13:21:37.514Z,21.61
2019-01-17T13:22:47.694Z,21.54
2019-01-17T13:23:56.876Z,21.59
2019-01-17T13:25:06.390Z,21.58
2019-01-17T13:26:15.276Z,21.5
2019-01-17T13:27:24.834Z,21.5
2019-01-17T13:28:33.954Z,21.44
2019-01-17T13:29:43.328Z,21.52
2019-01-17T13:30:52.637Z,21.46
2019-01-17T13:32:02.026Z,21.49
2019-01-17T13:33:11.377Z,21.37
2019-01-17T13:34:21.144Z,21.46
2019-01-17T13:35:30.164Z,21.47
2019-01-17T13:36:44.867Z,21.42
2019-01-17T13:37:54.395Z,21.43
2019-01-17T13:39:03.240Z,21.44
2019-01-17T13:40:12.843Z,21.38
2019-01-17T13:41:22.394Z,21.38
2019-01-17T13:42:31.513Z,21.35
2019-01-17T13:43:41.116Z,21.4
2019-01-17T13:44:50.434Z,21.38
2019-01-17T13:45:59.991Z,21.34
2019-01-17T13:47:08.823Z,21.37
2019-01-17T13:48:17.678Z,21.37
2019-01-17T13:49:27.556Z,21.34
2019-01-17T13:50:37.101Z,21.31
2019-01-17T13:51:46.490Z,21.32
2019-01-17T13:52:55.338Z,21.37
2019-01-17T13:54:04.397Z,21.31
2019-01-17T13:55:13.981Z,21.32
2019-01-17T13:56:23.512Z,21.34
2019-01-17T13:57:33.700Z,21.34
2019-01-17T13:58:42.978Z,21.28
2019-01-17T13:59:52.638Z,21.25
2019-01-17T14:01:01.938Z,21.31
2019-01-17T14:02:11.518Z,21.31
2019-01-17T14:03:21.042Z,21.28
2019-01-17T14:04:30.118Z,21.29
2019-01-17T14:05:39.725Z,21.31
2019-01-17T14:06:49.699Z,21.4
2019-01-17T14:07:59.021Z,21.32
2019-01-17T14:09:08.297Z,21.37
2019-01-17T14:10:17.620Z,21.38
2019-01-17T14:11:27.399Z,21.47
2019-01-17T14:12:36.332Z,21.46
2019-01-17T14:13:45.992Z,21.4
2019-01-17T14:14:55.296Z,21.53
2019-01-17T14:16:04.921Z,21.52
2019-01-17T14:17:14.245Z,21.56
2019-01-17T14:18:30.168Z,21.56
2019-01-17T14:19:39.687Z,21.54
2019-01-17T14:20:48.751Z,21.59
2019-01-17T14:21:58.102Z,21.64
2019-01-17T14:23:08.244Z,21.65
2019-01-17T14:24:18.124Z,21.64
2019-01-17T14:25:27.209Z,21.68
2019-01-17T14:26:36.572Z,21.65
2019-01-17T14:27:45.905Z,21.77
2019-01-17T14:28:55.322Z,21.74
2019-01-17T14:30:04.168Z,21.62
2019-01-17T14:31:13.971Z,21.71
2019-01-17T14:32:23.359Z,21.68
2019-01-17T14:33:32.721Z,21.72
2019-01-17T14:34:42.316Z,21.75
2019-01-17T14:35:51.924Z,21.58
2019-01-17T14:37:00.997Z,21.71
2019-01-17T14:38:10.087Z,21.74
2019-01-17T14:39:19.689Z,21.67
2019-01-17T14:40:28.773Z,21.67
2019-01-17T14:41:38.559Z,21.68
2019-01-17T14:42:47.953Z,21.68
2019-01-17T14:43:57.836Z,21.71
2019-01-17T14:45:06.721Z,21.67
2019-01-17T14:46:16.564Z,21.65
2019-01-17T14:47:25.852Z,21.62
2019-01-17T14:48:35.175Z,21.68
2019-01-17T14:49:44.801Z,21.61
2019-01-17T14:50:54.149Z,21.61
2019-01-17T14:52:03.468Z,21.61
2019-01-17T14:53:13.151Z,21.56
2019-01-17T14:54:22.594Z,21.56
2019-01-17T14:55:32.130Z,21.56
2019-01-17T14:56:41.309Z,21.56
2019-01-17T14:57:50.600Z,21.54